sensor_id;sensor_type;location;lat;lon;timestamp;P1;durP1;ratioP1;P2;durP2;ratioP2
73550;SDS011;61816;53.582;10.096;2023-06-22T00:01:56;5.50;;;3.78;;
73550;SDS011;61816;53.582;10.096;2023-06-22T00:04:21;6.60;;;4.05;;
73550;SDS011;61816;53.582;10.096;2023-06-22T00:06:46;6.80;;;4.90;;
73550;SDS011;61816;53.582;10.096;2023-06-22T00:09:12;11.48;;;4.88;;
73550;SDS011;61816;53.582;10.096;2023-06-22T00:11:37;10.07;;;4.88;;
73550;SDS011;61816;53.582;10.096;2023-06-22T00:14:03;7.10;;;4.00;;
73550;SDS011;61816;53.582;10.096;2023-06-22T00:16:28;5.78;;;4.78;;
73550;SDS011;61816;53.582;10.096;2023-06-22T00:18:54;10.60;;;4.78;;
73550;SDS011;61816;53.582;10.096;2023-06-22T00:21:19;8.35;;;4.60;;
73550;SDS011;61816;53.582;10.096;2023-06-22T00:23:46;10.85;;;5.25;;
73550;SDS011;61816;53.582;10.096;2023-06-22T00:26:12;8.23;;;4.82;;
73550;SDS011;61816;53.582;10.096;2023-06-22T00:28:38;8.43;;;5.38;;
73550;SDS011;61816;53.582;10.096;2023-06-22T00:31:03;7.93;;;4.75;;
73550;SDS011;61816;53.582;10.096;2023-06-22T00:33:28;8.10;;;4.85;;
73550;SDS011;61816;53.582;10.096;2023-06-22T00:35:54;8.73;;;4.80;;
73550;SDS011;61816;53.582;10.096;2023-06-22T00:38:19;5.93;;;4.30;;
73550;SDS011;61816;53.582;10.096;2023-06-22T00:40:45;7.57;;;4.70;;
73550;SDS011;61816;53.582;10.096;2023-06-22T00:43:10;7.50;;;4.63;;
73550;SDS011;61816;53.582;10.096;2023-06-22T00:45:36;7.28;;;4.97;;
73550;SDS011;61816;53.582;10.096;2023-06-22T00:48:01;10.38;;;5.35;;
73550;SDS011;61816;53.582;10.096;2023-06-22T00:50:31;12.07;;;6.35;;
73550;SDS011;61816;53.582;10.096;2023-06-22T00:52:59;7.60;;;4.78;;
73550;SDS011;61816;53.582;10.096;2023-06-22T00:55:29;12.38;;;7.90;;
73550;SDS011;61816;53.582;10.096;2023-06-22T00:57:55;14.73;;;5.13;;
73550;SDS011;61816;53.582;10.096;2023-06-22T01:00:21;6.43;;;4.57;;
73550;SDS011;61816;53.582;10.096;2023-06-22T01:02:49;12.15;;;4.88;;
73550;SDS011;61816;53.582;10.096;2023-06-22T01:05:20;8.40;;;5.03;;
73550;SDS011;61816;53.582;10.096;2023-06-22T01:12:55;8.52;;;4.88;;
73550;SDS011;61816;53.582;10.096;2023-06-22T01:16:00;11.05;;;5.07;;
73550;SDS011;61816;53.582;10.096;2023-06-22T01:18:28;8.95;;;5.60;;
73550;SDS011;61816;53.582;10.096;2023-06-22T01:20:55;6.75;;;5.18;;
73550;SDS011;61816;53.582;10.096;2023-06-22T01:26:21;9.18;;;5.50;;
73550;SDS011;61816;53.582;10.096;2023-06-22T01:28:54;10.20;;;5.15;;
73550;SDS011;61816;53.582;10.096;2023-06-22T01:31:23;8.40;;;5.10;;
73550;SDS011;61816;53.582;10.096;2023-06-22T01:33:51;7.57;;;5.07;;
73550;SDS011;61816;53.582;10.096;2023-06-22T01:36:20;10.88;;;5.10;;
73550;SDS011;61816;53.582;10.096;2023-06-22T01:38:47;9.60;;;6.22;;
73550;SDS011;61816;53.582;10.096;2023-06-22T01:41:13;14.27;;;6.50;;
73550;SDS011;61816;53.582;10.096;2023-06-22T01:43:38;8.77;;;5.68;;
73550;SDS011;61816;53.582;10.096;2023-06-22T01:46:04;9.57;;;6.28;;
73550;SDS011;61816;53.582;10.096;2023-06-22T01:48:30;11.27;;;5.93;;
73550;SDS011;61816;53.582;10.096;2023-06-22T01:50:56;9.88;;;5.68;;
73550;SDS011;61816;53.582;10.096;2023-06-22T01:53:22;10.70;;;5.22;;
73550;SDS011;61816;53.582;10.096;2023-06-22T01:55:48;8.05;;;5.28;;
73550;SDS011;61816;53.582;10.096;2023-06-22T01:58:13;9.07;;;6.00;;
73550;SDS011;61816;53.582;10.096;2023-06-22T02:00:40;10.48;;;7.15;;
73550;SDS011;61816;53.582;10.096;2023-06-22T02:03:13;9.43;;;6.50;;
73550;SDS011;61816;53.582;10.096;2023-06-22T02:05:50;11.32;;;6.13;;
73550;SDS011;61816;53.582;10.096;2023-06-22T02:08:20;11.80;;;5.95;;
73550;SDS011;61816;53.582;10.096;2023-06-22T02:10:49;8.48;;;5.80;;
73550;SDS011;61816;53.582;10.096;2023-06-22T02:13:16;9.43;;;5.80;;
73550;SDS011;61816;53.582;10.096;2023-06-22T02:15:42;8.50;;;6.32;;
73550;SDS011;61816;53.582;10.096;2023-06-22T02:18:08;8.50;;;5.65;;
73550;SDS011;61816;53.582;10.096;2023-06-22T02:20:36;11.30;;;5.88;;
73550;SDS011;61816;53.582;10.096;2023-06-22T02:23:02;15.00;;;6.15;;
73550;SDS011;61816;53.582;10.096;2023-06-22T02:25:27;9.05;;;6.45;;
73550;SDS011;61816;53.582;10.096;2023-06-22T02:27:53;8.90;;;5.85;;
73550;SDS011;61816;53.582;10.096;2023-06-22T02:30:18;11.15;;;6.55;;
73550;SDS011;61816;53.582;10.096;2023-06-22T02:32:43;10.88;;;8.27;;
73550;SDS011;61816;53.582;10.096;2023-06-22T02:35:09;14.73;;;7.22;;
73550;SDS011;61816;53.582;10.096;2023-06-22T02:37:35;8.23;;;6.05;;
73550;SDS011;61816;53.582;10.096;2023-06-22T02:40:04;11.98;;;6.32;;
73550;SDS011;61816;53.582;10.096;2023-06-22T02:42:32;11.15;;;6.80;;
73550;SDS011;61816;53.582;10.096;2023-06-22T02:44:57;8.10;;;6.03;;
73550;SDS011;61816;53.582;10.096;2023-06-22T02:50:32;10.48;;;7.03;;
73550;SDS011;61816;53.582;10.096;2023-06-22T02:52:57;15.38;;;7.82;;
73550;SDS011;61816;53.582;10.096;2023-06-22T02:55:23;12.98;;;6.95;;
73550;SDS011;61816;53.582;10.096;2023-06-22T02:57:48;12.35;;;7.70;;
73550;SDS011;61816;53.582;10.096;2023-06-22T03:00:18;8.93;;;6.85;;
73550;SDS011;61816;53.582;10.096;2023-06-22T03:02:44;12.45;;;7.18;;
73550;SDS011;61816;53.582;10.096;2023-06-22T03:05:11;15.32;;;7.38;;
73550;SDS011;61816;53.582;10.096;2023-06-22T03:07:39;11.63;;;7.57;;
73550;SDS011;61816;53.582;10.096;2023-06-22T03:10:06;12.85;;;6.82;;
73550;SDS011;61816;53.582;10.096;2023-06-22T03:12:32;11.90;;;7.05;;
73550;SDS011;61816;53.582;10.096;2023-06-22T03:14:57;9.43;;;6.88;;
73550;SDS011;61816;53.582;10.096;2023-06-22T03:17:23;15.73;;;7.18;;
73550;SDS011;61816;53.582;10.096;2023-06-22T03:19:48;9.95;;;6.65;;
73550;SDS011;61816;53.582;10.096;2023-06-22T03:22:13;11.20;;;7.00;;
73550;SDS011;61816;53.582;10.096;2023-06-22T03:24:40;13.35;;;7.32;;
73550;SDS011;61816;53.582;10.096;2023-06-22T03:27:05;14.07;;;7.30;;
73550;SDS011;61816;53.582;10.096;2023-06-22T03:29:31;13.80;;;7.22;;
73550;SDS011;61816;53.582;10.096;2023-06-22T03:31:56;14.27;;;8.05;;
73550;SDS011;61816;53.582;10.096;2023-06-22T03:34:21;13.32;;;8.32;;
73550;SDS011;61816;53.582;10.096;2023-06-22T03:36:47;10.93;;;7.57;;
73550;SDS011;61816;53.582;10.096;2023-06-22T03:39:12;11.43;;;7.35;;
73550;SDS011;61816;53.582;10.096;2023-06-22T03:41:38;15.80;;;8.50;;
73550;SDS011;61816;53.582;10.096;2023-06-22T03:44:03;16.10;;;7.65;;
73550;SDS011;61816;53.582;10.096;2023-06-22T03:46:29;9.90;;;7.38;;
73550;SDS011;61816;53.582;10.096;2023-06-22T03:48:54;12.00;;;7.80;;
73550;SDS011;61816;53.582;10.096;2023-06-22T03:51:20;11.38;;;7.72;;
73550;SDS011;61816;53.582;10.096;2023-06-22T03:53:45;10.13;;;6.45;;
73550;SDS011;61816;53.582;10.096;2023-06-22T03:56:10;15.77;;;7.43;;
73550;SDS011;61816;53.582;10.096;2023-06-22T03:58:36;14.20;;;7.20;;
73550;SDS011;61816;53.582;10.096;2023-06-22T04:01:07;10.95;;;6.85;;
73550;SDS011;61816;53.582;10.096;2023-06-22T04:03:36;16.17;;;6.35;;
73550;SDS011;61816;53.582;10.096;2023-06-22T04:06:02;12.73;;;6.93;;
73550;SDS011;61816;53.582;10.096;2023-06-22T04:08:27;9.55;;;6.95;;
73550;SDS011;61816;53.582;10.096;2023-06-22T04:10:52;13.93;;;6.30;;
73550;SDS011;61816;53.582;10.096;2023-06-22T04:13:18;12.57;;;6.70;;
73550;SDS011;61816;53.582;10.096;2023-06-22T04:15:44;10.82;;;6.68;;
73550;SDS011;61816;53.582;10.096;2023-06-22T04:18:09;16.40;;;7.63;;
73550;SDS011;61816;53.582;10.096;2023-06-22T04:20:34;12.07;;;6.93;;
73550;SDS011;61816;53.582;10.096;2023-06-22T04:23:00;10.82;;;6.60;;
73550;SDS011;61816;53.582;10.096;2023-06-22T04:25:25;7.60;;;5.68;;
73550;SDS011;61816;53.582;10.096;2023-06-22T04:27:50;12.93;;;7.40;;
73550;SDS011;61816;53.582;10.096;2023-06-22T04:30:16;15.07;;;6.47;;
73550;SDS011;61816;53.582;10.096;2023-06-22T04:32:42;13.32;;;7.18;;
73550;SDS011;61816;53.582;10.096;2023-06-22T04:35:08;15.98;;;6.15;;
73550;SDS011;61816;53.582;10.096;2023-06-22T04:37:33;12.18;;;7.82;;
73550;SDS011;61816;53.582;10.096;2023-06-22T04:39:59;13.38;;;7.60;;
73550;SDS011;61816;53.582;10.096;2023-06-22T04:42:25;13.90;;;7.20;;
73550;SDS011;61816;53.582;10.096;2023-06-22T04:44:51;16.20;;;6.55;;
73550;SDS011;61816;53.582;10.096;2023-06-22T04:47:16;14.10;;;7.07;;
73550;SDS011;61816;53.582;10.096;2023-06-22T04:49:42;10.07;;;6.70;;
73550;SDS011;61816;53.582;10.096;2023-06-22T04:52:08;10.23;;;7.53;;
73550;SDS011;61816;53.582;10.096;2023-06-22T04:54:36;13.00;;;7.03;;
73550;SDS011;61816;53.582;10.096;2023-06-22T04:57:04;10.05;;;6.85;;
73550;SDS011;61816;53.582;10.096;2023-06-22T04:59:35;10.68;;;7.18;;
73550;SDS011;61816;53.582;10.096;2023-06-22T05:02:01;11.27;;;7.15;;
73550;SDS011;61816;53.582;10.096;2023-06-22T05:04:28;13.13;;;7.15;;
73550;SDS011;61816;53.582;10.096;2023-06-22T05:06:56;10.70;;;6.57;;
73550;SDS011;61816;53.582;10.096;2023-06-22T05:09:22;11.20;;;7.50;;
73550;SDS011;61816;53.582;10.096;2023-06-22T05:11:49;18.67;;;6.80;;
73550;SDS011;61816;53.582;10.096;2023-06-22T05:14:15;10.20;;;6.20;;
73550;SDS011;61816;53.582;10.096;2023-06-22T05:16:41;13.95;;;6.40;;
73550;SDS011;61816;53.582;10.096;2023-06-22T05:19:07;11.88;;;6.20;;
73550;SDS011;61816;53.582;10.096;2023-06-22T05:21:32;14.07;;;5.60;;
73550;SDS011;61816;53.582;10.096;2023-06-22T05:23:58;9.00;;;5.95;;
73550;SDS011;61816;53.582;10.096;2023-06-22T05:26:34;8.90;;;5.70;;
73550;SDS011;61816;53.582;10.096;2023-06-22T05:29:00;10.88;;;5.57;;
73550;SDS011;61816;53.582;10.096;2023-06-22T05:31:28;12.40;;;5.07;;
73550;SDS011;61816;53.582;10.096;2023-06-22T05:33:54;13.05;;;6.07;;
73550;SDS011;61816;53.582;10.096;2023-06-22T05:36:20;11.25;;;5.25;;
73550;SDS011;61816;53.582;10.096;2023-06-22T05:38:46;11.20;;;4.97;;
73550;SDS011;61816;53.582;10.096;2023-06-22T05:41:12;10.73;;;5.25;;
73550;SDS011;61816;53.582;10.096;2023-06-22T05:43:38;6.78;;;4.10;;
73550;SDS011;61816;53.582;10.096;2023-06-22T05:46:03;7.40;;;4.05;;
73550;SDS011;61816;53.582;10.096;2023-06-22T05:48:29;10.65;;;5.15;;
73550;SDS011;61816;53.582;10.096;2023-06-22T05:50:55;7.05;;;4.30;;
73550;SDS011;61816;53.582;10.096;2023-06-22T05:53:20;8.68;;;4.15;;
73550;SDS011;61816;53.582;10.096;2023-06-22T05:55:46;9.23;;;4.63;;
73550;SDS011;61816;53.582;10.096;2023-06-22T05:58:11;7.68;;;5.07;;
73550;SDS011;61816;53.582;10.096;2023-06-22T06:00:38;6.88;;;2.45;;
73550;SDS011;61816;53.582;10.096;2023-06-22T06:03:04;11.88;;;3.20;;
73550;SDS011;61816;53.582;10.096;2023-06-22T06:05:30;9.23;;;3.28;;
73550;SDS011;61816;53.582;10.096;2023-06-22T06:07:56;6.53;;;2.25;;
73550;SDS011;61816;53.582;10.096;2023-06-22T06:10:21;8.98;;;4.00;;
73550;SDS011;61816;53.582;10.096;2023-06-22T06:12:47;44.67;;;4.00;;
73550;SDS011;61816;53.582;10.096;2023-06-22T06:15:12;7.00;;;3.33;;
73550;SDS011;61816;53.582;10.096;2023-06-22T06:20:13;8.52;;;3.75;;
73550;SDS011;61816;53.582;10.096;2023-06-22T06:22:38;8.70;;;3.42;;
73550;SDS011;61816;53.582;10.096;2023-06-22T06:25:04;7.97;;;3.25;;
73550;SDS011;61816;53.582;10.096;2023-06-22T06:27:30;16.25;;;3.47;;
73550;SDS011;61816;53.582;10.096;2023-06-22T06:29:56;12.45;;;4.47;;
73550;SDS011;61816;53.582;10.096;2023-06-22T06:32:21;16.98;;;4.47;;
73550;SDS011;61816;53.582;10.096;2023-06-22T06:34:46;14.35;;;4.43;;
73550;SDS011;61816;53.582;10.096;2023-06-22T06:37:12;8.15;;;4.50;;
73550;SDS011;61816;53.582;10.096;2023-06-22T06:39:37;20.48;;;6.45;;
73550;SDS011;61816;53.582;10.096;2023-06-22T06:42:03;10.27;;;4.07;;
73550;SDS011;61816;53.582;10.096;2023-06-22T06:44:30;19.90;;;6.03;;
73550;SDS011;61816;53.582;10.096;2023-06-22T06:46:55;16.48;;;8.07;;
73550;SDS011;61816;53.582;10.096;2023-06-22T06:49:20;11.05;;;6.85;;
73550;SDS011;61816;53.582;10.096;2023-06-22T06:51:46;20.25;;;7.22;;
73550;SDS011;61816;53.582;10.096;2023-06-22T06:54:11;13.63;;;5.20;;
73550;SDS011;61816;53.582;10.096;2023-06-22T06:56:37;8.60;;;4.72;;
73550;SDS011;61816;53.582;10.096;2023-06-22T06:59:02;7.70;;;4.25;;
73550;SDS011;61816;53.582;10.096;2023-06-22T07:01:27;7.68;;;3.40;;
73550;SDS011;61816;53.582;10.096;2023-06-22T07:03:59;9.75;;;3.40;;
73550;SDS011;61816;53.582;10.096;2023-06-22T07:06:25;12.38;;;4.45;;
73550;SDS011;61816;53.582;10.096;2023-06-22T07:08:57;7.85;;;3.65;;
73550;SDS011;61816;53.582;10.096;2023-06-22T07:11:22;5.43;;;3.78;;
73550;SDS011;61816;53.582;10.096;2023-06-22T07:13:47;7.95;;;3.53;;
73550;SDS011;61816;53.582;10.096;2023-06-22T07:16:13;8.18;;;3.75;;
73550;SDS011;61816;53.582;10.096;2023-06-22T07:18:39;6.90;;;3.63;;
73550;SDS011;61816;53.582;10.096;2023-06-22T07:21:08;6.47;;;3.50;;
73550;SDS011;61816;53.582;10.096;2023-06-22T07:23:34;5.93;;;4.20;;
73550;SDS011;61816;53.582;10.096;2023-06-22T07:25:59;7.28;;;4.28;;
73550;SDS011;61816;53.582;10.096;2023-06-22T07:28:28;6.05;;;3.92;;
73550;SDS011;61816;53.582;10.096;2023-06-22T07:30:56;16.85;;;3.88;;
73550;SDS011;61816;53.582;10.096;2023-06-22T07:33:22;8.15;;;4.05;;
73550;SDS011;61816;53.582;10.096;2023-06-22T07:35:47;11.52;;;4.25;;
73550;SDS011;61816;53.582;10.096;2023-06-22T07:38:13;6.15;;;4.18;;
73550;SDS011;61816;53.582;10.096;2023-06-22T07:40:39;6.28;;;3.58;;
73550;SDS011;61816;53.582;10.096;2023-06-22T07:43:06;8.07;;;3.83;;
73550;SDS011;61816;53.582;10.096;2023-06-22T07:45:32;7.20;;;3.70;;
73550;SDS011;61816;53.582;10.096;2023-06-22T07:47:59;6.30;;;4.22;;
73550;SDS011;61816;53.582;10.096;2023-06-22T07:50:25;6.25;;;4.03;;
73550;SDS011;61816;53.582;10.096;2023-06-22T07:52:50;11.30;;;4.18;;
73550;SDS011;61816;53.582;10.096;2023-06-22T07:55:17;11.77;;;4.18;;
73550;SDS011;61816;53.582;10.096;2023-06-22T07:57:43;8.45;;;3.53;;
73550;SDS011;61816;53.582;10.096;2023-06-22T08:00:09;13.15;;;4.55;;
73550;SDS011;61816;53.582;10.096;2023-06-22T08:02:40;7.25;;;4.18;;
73550;SDS011;61816;53.582;10.096;2023-06-22T08:05:06;10.82;;;3.58;;
73550;SDS011;61816;53.582;10.096;2023-06-22T08:07:33;5.10;;;3.13;;
73550;SDS011;61816;53.582;10.096;2023-06-22T08:10:02;7.03;;;3.70;;
73550;SDS011;61816;53.582;10.096;2023-06-22T08:12:27;8.15;;;3.22;;
73550;SDS011;61816;53.582;10.096;2023-06-22T08:14:53;10.48;;;3.45;;
73550;SDS011;61816;53.582;10.096;2023-06-22T08:17:18;6.63;;;3.58;;
73550;SDS011;61816;53.582;10.096;2023-06-22T08:19:43;7.32;;;3.55;;
73550;SDS011;61816;53.582;10.096;2023-06-22T08:22:09;11.43;;;3.53;;
73550;SDS011;61816;53.582;10.096;2023-06-22T08:24:34;6.97;;;3.72;;
73550;SDS011;61816;53.582;10.096;2023-06-22T08:26:59;7.40;;;4.07;;
73550;SDS011;61816;53.582;10.096;2023-06-22T08:29:25;8.40;;;4.22;;
73550;SDS011;61816;53.582;10.096;2023-06-22T08:31:50;9.18;;;3.15;;
73550;SDS011;61816;53.582;10.096;2023-06-22T08:34:15;8.50;;;4.00;;
73550;SDS011;61816;53.582;10.096;2023-06-22T08:36:41;6.70;;;3.50;;
73550;SDS011;61816;53.582;10.096;2023-06-22T08:39:10;9.90;;;4.07;;
73550;SDS011;61816;53.582;10.096;2023-06-22T08:41:35;6.03;;;3.75;;
73550;SDS011;61816;53.582;10.096;2023-06-22T08:44:01;7.70;;;3.85;;
73550;SDS011;61816;53.582;10.096;2023-06-22T08:46:27;6.03;;;3.28;;
73550;SDS011;61816;53.582;10.096;2023-06-22T08:48:57;5.72;;;3.17;;
73550;SDS011;61816;53.582;10.096;2023-06-22T08:51:23;8.10;;;3.70;;
73550;SDS011;61816;53.582;10.096;2023-06-22T08:53:48;6.28;;;2.58;;
73550;SDS011;61816;53.582;10.096;2023-06-22T08:56:14;11.63;;;3.20;;
73550;SDS011;61816;53.582;10.096;2023-06-22T08:58:39;8.77;;;2.72;;
73550;SDS011;61816;53.582;10.096;2023-06-22T09:01:04;8.13;;;3.20;;
73550;SDS011;61816;53.582;10.096;2023-06-22T09:03:30;8.05;;;3.17;;
73550;SDS011;61816;53.582;10.096;2023-06-22T09:05:57;4.50;;;2.60;;
73550;SDS011;61816;53.582;10.096;2023-06-22T09:08:23;8.10;;;3.80;;
73550;SDS011;61816;53.582;10.096;2023-06-22T09:10:48;7.63;;;3.65;;
73550;SDS011;61816;53.582;10.096;2023-06-22T09:13:13;4.70;;;3.08;;
73550;SDS011;61816;53.582;10.096;2023-06-22T09:15:38;6.43;;;3.05;;
73550;SDS011;61816;53.582;10.096;2023-06-22T09:18:04;8.13;;;3.22;;
73550;SDS011;61816;53.582;10.096;2023-06-22T09:20:29;8.68;;;3.40;;
73550;SDS011;61816;53.582;10.096;2023-06-22T09:22:54;6.45;;;3.72;;
73550;SDS011;61816;53.582;10.096;2023-06-22T09:25:20;6.05;;;3.22;;
73550;SDS011;61816;53.582;10.096;2023-06-22T09:27:45;8.30;;;2.83;;
73550;SDS011;61816;53.582;10.096;2023-06-22T09:30:11;5.68;;;3.33;;
73550;SDS011;61816;53.582;10.096;2023-06-22T09:32:37;7.00;;;3.13;;
73550;SDS011;61816;53.582;10.096;2023-06-22T09:35:03;7.03;;;3.35;;
73550;SDS011;61816;53.582;10.096;2023-06-22T09:37:33;10.82;;;3.10;;
73550;SDS011;61816;53.582;10.096;2023-06-22T09:39:59;9.57;;;3.35;;
73550;SDS011;61816;53.582;10.096;2023-06-22T09:42:25;8.05;;;3.97;;
73550;SDS011;61816;53.582;10.096;2023-06-22T09:44:50;5.10;;;3.80;;
73550;SDS011;61816;53.582;10.096;2023-06-22T09:47:15;6.35;;;3.10;;
73550;SDS011;61816;53.582;10.096;2023-06-22T09:49:40;5.65;;;3.42;;
73550;SDS011;61816;53.582;10.096;2023-06-22T09:52:06;11.43;;;3.97;;
73550;SDS011;61816;53.582;10.096;2023-06-22T09:54:32;10.35;;;4.28;;
73550;SDS011;61816;53.582;10.096;2023-06-22T09:56:57;6.10;;;3.58;;
73550;SDS011;61816;53.582;10.096;2023-06-22T09:59:22;11.18;;;3.78;;
73550;SDS011;61816;53.582;10.096;2023-06-22T10:01:47;7.07;;;3.20;;
73550;SDS011;61816;53.582;10.096;2023-06-22T10:04:13;5.80;;;3.25;;
73550;SDS011;61816;53.582;10.096;2023-06-22T10:06:38;6.90;;;3.45;;
73550;SDS011;61816;53.582;10.096;2023-06-22T10:09:06;6.50;;;2.97;;
73550;SDS011;61816;53.582;10.096;2023-06-22T10:11:32;5.55;;;3.63;;
73550;SDS011;61816;53.582;10.096;2023-06-22T10:14:00;10.55;;;3.47;;
73550;SDS011;61816;53.582;10.096;2023-06-22T10:16:30;11.02;;;2.95;;
73550;SDS011;61816;53.582;10.096;2023-06-22T10:18:56;16.63;;;4.65;;
73550;SDS011;61816;53.582;10.096;2023-06-22T10:21:21;7.72;;;3.47;;
73550;SDS011;61816;53.582;10.096;2023-06-22T10:23:46;7.57;;;3.47;;
73550;SDS011;61816;53.582;10.096;2023-06-22T10:26:12;4.45;;;3.25;;
73550;SDS011;61816;53.582;10.096;2023-06-22T10:28:37;7.05;;;3.17;;
73550;SDS011;61816;53.582;10.096;2023-06-22T10:31:02;15.20;;;3.75;;
73550;SDS011;61816;53.582;10.096;2023-06-22T10:33:28;7.00;;;3.50;;
73550;SDS011;61816;53.582;10.096;2023-06-22T10:35:53;11.30;;;3.60;;
73550;SDS011;61816;53.582;10.096;2023-06-22T10:38:18;11.50;;;3.35;;
73550;SDS011;61816;53.582;10.096;2023-06-22T10:40:44;4.15;;;2.78;;
73550;SDS011;61816;53.582;10.096;2023-06-22T10:43:09;4.38;;;3.22;;
73550;SDS011;61816;53.582;10.096;2023-06-22T10:45:35;6.32;;;3.72;;
73550;SDS011;61816;53.582;10.096;2023-06-22T10:48:00;5.50;;;3.33;;
73550;SDS011;61816;53.582;10.096;2023-06-22T10:50:25;10.90;;;3.58;;
73550;SDS011;61816;53.582;10.096;2023-06-22T10:52:51;12.68;;;3.60;;
73550;SDS011;61816;53.582;10.096;2023-06-22T10:55:16;10.55;;;3.88;;
73550;SDS011;61816;53.582;10.096;2023-06-22T10:57:41;11.55;;;4.43;;
73550;SDS011;61816;53.582;10.096;2023-06-22T11:00:09;9.63;;;3.60;;
73550;SDS011;61816;53.582;10.096;2023-06-22T11:02:36;5.90;;;3.80;;
73550;SDS011;61816;53.582;10.096;2023-06-22T11:05:01;4.90;;;3.33;;
73550;SDS011;61816;53.582;10.096;2023-06-22T11:07:28;7.10;;;4.15;;
73550;SDS011;61816;53.582;10.096;2023-06-22T11:09:54;8.13;;;3.80;;
73550;SDS011;61816;53.582;10.096;2023-06-22T11:12:20;6.38;;;3.70;;
73550;SDS011;61816;53.582;10.096;2023-06-22T11:14:45;11.30;;;3.53;;
73550;SDS011;61816;53.582;10.096;2023-06-22T11:17:10;6.35;;;3.70;;
73550;SDS011;61816;53.582;10.096;2023-06-22T11:19:36;4.97;;;3.35;;
73550;SDS011;61816;53.582;10.096;2023-06-22T11:22:01;5.75;;;3.83;;
73550;SDS011;61816;53.582;10.096;2023-06-22T11:24:27;7.45;;;3.88;;
73550;SDS011;61816;53.582;10.096;2023-06-22T11:26:52;4.13;;;2.88;;
73550;SDS011;61816;53.582;10.096;2023-06-22T11:29:17;7.63;;;3.40;;
73550;SDS011;61816;53.582;10.096;2023-06-22T11:31:43;8.20;;;3.72;;
73550;SDS011;61816;53.582;10.096;2023-06-22T11:34:08;9.88;;;3.70;;
73550;SDS011;61816;53.582;10.096;2023-06-22T11:36:34;5.28;;;3.25;;
73550;SDS011;61816;53.582;10.096;2023-06-22T11:39:00;5.20;;;3.90;;
73550;SDS011;61816;53.582;10.096;2023-06-22T11:41:26;7.03;;;4.07;;
73550;SDS011;61816;53.582;10.096;2023-06-22T11:43:51;8.90;;;3.63;;
73550;SDS011;61816;53.582;10.096;2023-06-22T11:46:17;6.13;;;3.92;;
73550;SDS011;61816;53.582;10.096;2023-06-22T11:48:42;7.65;;;4.38;;
73550;SDS011;61816;53.582;10.096;2023-06-22T11:51:08;6.97;;;4.63;;
73550;SDS011;61816;53.582;10.096;2023-06-22T11:53:33;5.47;;;4.40;;
73550;SDS011;61816;53.582;10.096;2023-06-22T11:55:59;9.15;;;3.90;;
73550;SDS011;61816;53.582;10.096;2023-06-22T11:58:26;8.52;;;4.53;;
73550;SDS011;61816;53.582;10.096;2023-06-22T12:00:51;7.90;;;4.07;;
73550;SDS011;61816;53.582;10.096;2023-06-22T12:03:17;5.10;;;3.85;;
73550;SDS011;61816;53.582;10.096;2023-06-22T12:05:43;14.38;;;4.47;;
73550;SDS011;61816;53.582;10.096;2023-06-22T12:08:08;5.65;;;3.97;;
73550;SDS011;61816;53.582;10.096;2023-06-22T12:10:34;5.40;;;4.43;;
73550;SDS011;61816;53.582;10.096;2023-06-22T12:12:59;5.68;;;4.55;;
73550;SDS011;61816;53.582;10.096;2023-06-22T12:15:25;11.20;;;4.93;;
73550;SDS011;61816;53.582;10.096;2023-06-22T12:17:51;4.88;;;4.22;;
73550;SDS011;61816;53.582;10.096;2023-06-22T12:20:17;10.63;;;4.38;;
73550;SDS011;61816;53.582;10.096;2023-06-22T12:22:43;8.98;;;3.80;;
73550;SDS011;61816;53.582;10.096;2023-06-22T12:25:09;7.55;;;4.47;;
73550;SDS011;61816;53.582;10.096;2023-06-22T12:27:35;8.52;;;4.43;;
73550;SDS011;61816;53.582;10.096;2023-06-22T12:30:02;4.05;;;3.65;;
73550;SDS011;61816;53.582;10.096;2023-06-22T12:32:28;8.77;;;4.20;;
73550;SDS011;61816;53.582;10.096;2023-06-22T12:34:53;9.13;;;4.85;;
73550;SDS011;61816;53.582;10.096;2023-06-22T12:37:19;7.88;;;3.97;;
73550;SDS011;61816;53.582;10.096;2023-06-22T12:39:44;6.68;;;4.20;;
73550;SDS011;61816;53.582;10.096;2023-06-22T12:42:10;7.05;;;4.15;;
73550;SDS011;61816;53.582;10.096;2023-06-22T12:44:37;6.18;;;5.13;;
73550;SDS011;61816;53.582;10.096;2023-06-22T12:47:03;11.50;;;4.43;;
73550;SDS011;61816;53.582;10.096;2023-06-22T12:49:29;9.23;;;5.07;;
73550;SDS011;61816;53.582;10.096;2023-06-22T12:51:54;11.13;;;4.80;;
73550;SDS011;61816;53.582;10.096;2023-06-22T12:54:19;9.10;;;4.35;;
73550;SDS011;61816;53.582;10.096;2023-06-22T12:56:45;6.30;;;4.50;;
73550;SDS011;61816;53.582;10.096;2023-06-22T12:59:10;10.50;;;5.03;;
73550;SDS011;61816;53.582;10.096;2023-06-22T13:01:36;5.97;;;4.35;;
73550;SDS011;61816;53.582;10.096;2023-06-22T13:04:02;12.18;;;6.63;;
73550;SDS011;61816;53.582;10.096;2023-06-22T13:06:28;7.60;;;4.60;;
73550;SDS011;61816;53.582;10.096;2023-06-22T13:08:53;7.90;;;5.03;;
73550;SDS011;61816;53.582;10.096;2023-06-22T13:11:19;5.03;;;4.10;;
73550;SDS011;61816;53.582;10.096;2023-06-22T13:13:45;6.53;;;4.47;;
73550;SDS011;61816;53.582;10.096;2023-06-22T13:16:10;9.00;;;5.28;;
73550;SDS011;61816;53.582;10.096;2023-06-22T13:18:36;8.40;;;4.35;;
73550;SDS011;61816;53.582;10.096;2023-06-22T13:21:02;9.10;;;4.90;;
73550;SDS011;61816;53.582;10.096;2023-06-22T13:23:28;6.13;;;4.78;;
73550;SDS011;61816;53.582;10.096;2023-06-22T13:25:53;8.35;;;3.78;;
73550;SDS011;61816;53.582;10.096;2023-06-22T13:28:18;8.82;;;5.13;;
73550;SDS011;61816;53.582;10.096;2023-06-22T13:30:45;12.18;;;4.30;;
73550;SDS011;61816;53.582;10.096;2023-06-22T13:33:15;10.68;;;4.45;;
73550;SDS011;61816;53.582;10.096;2023-06-22T13:35:41;6.43;;;4.22;;
73550;SDS011;61816;53.582;10.096;2023-06-22T13:38:10;8.40;;;4.25;;
73550;SDS011;61816;53.582;10.096;2023-06-22T13:40:35;11.77;;;4.45;;
73550;SDS011;61816;53.582;10.096;2023-06-22T13:43:03;8.38;;;4.72;;
73550;SDS011;61816;53.582;10.096;2023-06-22T13:45:29;8.05;;;4.38;;
73550;SDS011;61816;53.582;10.096;2023-06-22T13:47:54;8.85;;;4.90;;
73550;SDS011;61816;53.582;10.096;2023-06-22T13:50:20;7.10;;;4.60;;
73550;SDS011;61816;53.582;10.096;2023-06-22T13:52:45;8.27;;;4.78;;
73550;SDS011;61816;53.582;10.096;2023-06-22T13:55:10;9.40;;;4.90;;
73550;SDS011;61816;53.582;10.096;2023-06-22T13:57:36;9.52;;;4.78;;
73550;SDS011;61816;53.582;10.096;2023-06-22T14:00:03;6.43;;;4.53;;
73550;SDS011;61816;53.582;10.096;2023-06-22T14:02:30;9.10;;;5.30;;
73550;SDS011;61816;53.582;10.096;2023-06-22T14:04:55;9.95;;;4.88;;
73550;SDS011;61816;53.582;10.096;2023-06-22T14:07:21;9.90;;;4.30;;
73550;SDS011;61816;53.582;10.096;2023-06-22T14:09:46;5.95;;;3.83;;
73550;SDS011;61816;53.582;10.096;2023-06-22T14:12:12;5.55;;;4.70;;
73550;SDS011;61816;53.582;10.096;2023-06-22T14:14:38;7.88;;;4.43;;
73550;SDS011;61816;53.582;10.096;2023-06-22T14:17:04;6.07;;;4.53;;
73550;SDS011;61816;53.582;10.096;2023-06-22T14:19:29;9.57;;;4.97;;
73550;SDS011;61816;53.582;10.096;2023-06-22T14:21:55;10.00;;;4.40;;
73550;SDS011;61816;53.582;10.096;2023-06-22T14:24:21;7.28;;;4.50;;
73550;SDS011;61816;53.582;10.096;2023-06-22T14:26:47;10.02;;;4.18;;
73550;SDS011;61816;53.582;10.096;2023-06-22T14:29:12;6.53;;;4.22;;
73550;SDS011;61816;53.582;10.096;2023-06-22T14:31:38;6.72;;;4.43;;
73550;SDS011;61816;53.582;10.096;2023-06-22T14:34:03;6.63;;;4.22;;
73550;SDS011;61816;53.582;10.096;2023-06-22T14:36:30;8.98;;;4.85;;